createdAt,value
2019-05-10T00:00:27.842Z,57.74
2019-05-10T00:03:14.163Z,53.55
2019-05-10T00:06:00.513Z,56.40
2019-05-10T00:08:46.663Z,55.72
2019-05-10T00:11:39.653Z,52.98
2019-05-10T00:14:29.054Z,57.35
2019-05-10T00:17:11.795Z,54.69
2019-05-10T00:19:40.404Z,55.76
2019-05-10T00:22:09.017Z,55.35
2019-05-10T00:24:37.689Z,53.42
2019-05-10T00:27:06.379Z,54.14
2019-05-10T00:29:35.006Z,54.86
2019-05-10T00:32:03.641Z,56.37
2019-05-10T00:34:32.492Z,55.44
2019-05-10T00:37:01.131Z,57.15
2019-05-10T00:39:29.736Z,55.13
2019-05-10T00:41:58.575Z,52.65
2019-05-10T00:44:27.170Z,54.30
2019-05-10T00:46:55.795Z,54.30
2019-05-10T00:49:24.384Z,52.29
2019-05-10T00:51:53.148Z,52.13
2019-05-10T00:54:21.886Z,52.92
2019-05-10T00:56:50.501Z,54.46
2019-05-10T00:59:19.103Z,53.10
2019-05-10T01:01:47.784Z,53.72
2019-05-10T01:04:16.418Z,53.12
2019-05-10T01:06:45.255Z,51.67
2019-05-10T01:09:14.120Z,51.66
2019-05-10T01:11:42.795Z,54.55
2019-05-10T01:14:11.726Z,54.72
2019-05-10T01:16:40.351Z,55.24
2019-05-10T01:19:08.930Z,54.96
2019-05-10T01:21:37.540Z,54.96
2019-05-10T01:24:06.162Z,53.44
2019-05-10T01:26:34.776Z,55.64
2019-05-10T01:29:03.537Z,54.40
2019-05-10T01:31:32.387Z,54.41
2019-05-10T01:34:00.988Z,55.28
2019-05-10T01:36:29.830Z,51.78
2019-05-10T01:38:58.692Z,55.58
2019-05-10T01:41:27.312Z,53.50
2019-05-10T01:43:56.051Z,55.19
2019-05-10T01:46:24.685Z,55.19
2019-05-10T01:48:53.271Z,55.42
2019-05-10T01:51:22.205Z,53.74
2019-05-10T01:53:50.917Z,53.27
2019-05-10T01:56:19.606Z,53.40
2019-05-10T01:58:48.196Z,53.34
2019-05-10T02:01:16.824Z,52.58
2019-05-10T02:03:45.460Z,53.06
2019-05-10T02:06:14.095Z,51.51
2019-05-10T02:08:42.857Z,53.77
2019-05-10T02:11:11.440Z,51.70
2019-05-10T02:13:40.129Z,52.57
2019-05-10T02:16:09.135Z,52.57
2019-05-10T02:18:38.221Z,53.07
2019-05-10T02:21:07.102Z,53.48
2019-05-10T02:23:35.698Z,53.48
2019-05-10T02:26:09.516Z,53.59
2019-05-10T02:28:34.788Z,54.01
2019-05-10T02:31:03.447Z,54.33
2019-05-10T02:33:32.050Z,54.33
2019-05-10T02:36:00.877Z,53.95
2019-05-10T02:38:29.648Z,53.29
2019-05-10T02:40:58.317Z,53.27
2019-05-10T02:43:27.509Z,53.27
2019-05-10T02:45:56.651Z,52.42
2019-05-10T02:48:25.517Z,53.92
2019-05-10T02:50:54.112Z,54.48
2019-05-10T02:53:22.816Z,54.48
2019-05-10T02:55:51.472Z,55.03
2019-05-10T02:58:20.083Z,54.84
2019-05-10T03:00:50.374Z,54.07
2019-05-10T03:03:20.150Z,54.07
2019-05-10T03:05:50.383Z,55.08
2019-05-10T03:08:18.994Z,53.34
2019-05-10T03:10:57.039Z,53.34
2019-05-10T03:13:29.079Z,54.88
2019-05-10T03:16:01.683Z,53.52
2019-05-10T03:18:31.841Z,53.44
2019-05-10T03:21:01.458Z,53.44
2019-05-10T03:23:30.520Z,53.52
2019-05-10T03:25:59.966Z,52.93
2019-05-10T03:28:28.773Z,52.43
2019-05-10T03:30:57.630Z,49.31
2019-05-10T03:33:26.417Z,51.79
2019-05-10T03:35:55.047Z,53.95
2019-05-10T03:38:23.944Z,55.91
2019-05-10T03:40:55.843Z,55.91
2019-05-10T03:43:24.456Z,53.01
2019-05-10T03:45:53.071Z,53.27
2019-05-10T03:48:21.768Z,57.18
2019-05-10T03:50:52.742Z,55.21
2019-05-10T03:53:20.702Z,55.21
2019-05-10T03:55:49.303Z,53.05
2019-05-10T03:58:17.939Z,53.28
2019-05-10T04:00:46.565Z,55.02
2019-05-10T04:03:15.241Z,55.81
2019-05-10T04:05:43.866Z,55.81
2019-05-10T04:08:12.505Z,54.93
2019-05-10T04:10:41.096Z,57.19
2019-05-10T04:13:09.887Z,56.99
2019-05-10T04:15:38.489Z,57.71
2019-05-10T04:18:07.167Z,54.59
2019-05-10T04:20:35.782Z,52.99
2019-05-10T04:23:04.399Z,54.22
2019-05-10T04:25:33.091Z,52.99
2019-05-10T04:28:01.763Z,52.99
2019-05-10T04:30:31.804Z,56.81
2019-05-10T04:33:00.686Z,56.81
2019-05-10T04:35:29.338Z,52.13
2019-05-10T04:37:57.933Z,52.13
2019-05-10T04:40:26.584Z,50.64
2019-05-10T04:42:55.295Z,50.64
2019-05-10T04:45:24.146Z,50.98
2019-05-10T04:47:53.003Z,52.60
2019-05-10T04:50:21.619Z,53.61
2019-05-10T04:52:50.216Z,54.01
2019-05-10T04:55:19.813Z,54.01
2019-05-10T04:57:50.985Z,52.83
2019-05-10T05:00:18.924Z,53.85
2019-05-10T05:02:47.563Z,53.91
2019-05-10T05:05:16.270Z,53.91
2019-05-10T05:07:45.105Z,53.79
2019-05-10T05:10:14.054Z,53.43
2019-05-10T05:12:42.724Z,53.07
2019-05-10T05:15:11.713Z,51.90
2019-05-10T05:17:40.566Z,51.90
2019-05-10T05:20:09.284Z,54.90
2019-05-10T05:22:38.206Z,54.57
2019-05-10T05:25:07.336Z,54.57
2019-05-10T05:27:36.209Z,54.57
2019-05-10T05:30:05.312Z,54.57
2019-05-10T05:32:38.443Z,53.04
2019-05-10T05:35:04.473Z,52.84
2019-05-10T05:37:33.088Z,52.85
2019-05-10T05:40:02.123Z,55.47
2019-05-10T05:42:31.265Z,55.47
2019-05-10T05:45:00.215Z,57.97
2019-05-10T05:47:28.893Z,55.59
2019-05-10T05:49:57.682Z,55.59
2019-05-10T05:52:26.649Z,55.76
2019-05-10T05:54:57.471Z,55.76
2019-05-10T05:57:27.643Z,55.35
2019-05-10T05:59:57.759Z,54.47
2019-05-10T06:02:26.648Z,58.35
2019-05-10T06:04:55.231Z,57.11
2019-05-10T06:07:24.092Z,57.59
2019-05-10T06:09:53.047Z,57.59
2019-05-10T06:12:21.793Z,59.50
2019-05-10T06:14:52.396Z,58.02
2019-05-10T06:17:23.658Z,58.16
2019-05-10T06:19:51.750Z,58.11
2019-05-10T06:22:20.691Z,56.54
2019-05-10T06:24:52.442Z,56.54
2019-05-10T06:27:19.809Z,55.54
2019-05-10T06:29:48.636Z,55.88
2019-05-10T06:32:17.559Z,55.88
2019-05-10T06:34:46.205Z,55.45
2019-05-10T06:37:14.892Z,54.32
2019-05-10T06:39:43.849Z,54.32
2019-05-10T06:42:12.665Z,54.00
2019-05-10T06:44:41.500Z,54.00
2019-05-10T06:47:11.350Z,54.95
2019-05-10T06:49:41.063Z,56.74
2019-05-10T06:52:10.493Z,54.71
2019-05-10T06:54:39.196Z,54.71
2019-05-10T06:57:11.144Z,55.12
2019-05-10T06:59:38.416Z,55.05
2019-05-10T07:02:07.050Z,55.05
2019-05-10T07:04:40.774Z,55.90
2019-05-10T07:07:09.699Z,55.15
2019-05-10T07:10:01.713Z,56.01
2019-05-10T07:12:09.256Z,56.01
2019-05-10T07:14:44.991Z,56.63
2019-05-10T07:17:07.849Z,56.07
2019-05-10T07:19:41.998Z,53.36
2019-05-10T07:22:06.887Z,52.04
2019-05-10T07:24:35.488Z,51.35
2019-05-10T07:27:05.831Z,53.97
2019-05-10T07:29:42.157Z,55.45
2019-05-10T07:32:04.938Z,53.33
2019-05-10T07:34:33.570Z,52.32
2019-05-10T07:37:02.268Z,52.81
2019-05-10T07:39:31.103Z,53.39
2019-05-10T07:42:00.611Z,55.11
2019-05-10T07:44:30.301Z,53.38
2019-05-10T07:46:59.209Z,54.99
2019-05-10T07:49:30.107Z,53.93
2019-05-10T07:52:02.235Z,54.74
2019-05-10T07:54:30.626Z,54.84
2019-05-10T07:56:59.442Z,54.02
2019-05-10T07:59:33.885Z,53.65
2019-05-10T08:01:59.023Z,53.97
2019-05-10T08:04:33.222Z,54.79
2019-05-10T08:06:59.708Z,54.01
2019-05-10T08:09:31.512Z,56.37
2019-05-10T08:12:03.316Z,55.23
2019-05-10T08:14:29.229Z,55.10
2019-05-10T08:17:01.907Z,55.20
2019-05-10T08:19:32.639Z,54.98
2019-05-10T08:22:01.730Z,54.59
2019-05-10T08:24:28.889Z,55.40
2019-05-10T08:27:08.961Z,55.32
2019-05-10T08:29:28.842Z,54.07
2019-05-10T08:31:57.549Z,55.01
2019-05-10T08:34:28.983Z,56.65
2019-05-10T08:36:56.540Z,55.93
2019-05-10T08:39:25.174Z,53.43
2019-05-10T08:42:03.904Z,55.02
2019-05-10T08:44:24.372Z,52.44
2019-05-10T08:46:52.986Z,53.65
2019-05-10T08:49:29.472Z,54.23
2019-05-10T08:51:52.397Z,53.76
2019-05-10T08:54:22.505Z,52.95
2019-05-10T08:56:53.054Z,50.34
2019-05-10T08:59:26.447Z,53.51
2019-05-10T09:01:53.864Z,51.32
2019-05-10T09:04:22.531Z,51.73
2019-05-10T09:06:55.356Z,50.94
2019-05-10T09:09:22.778Z,50.05
2019-05-10T09:11:52.223Z,52.39
2019-05-10T09:14:24.015Z,51.71
2019-05-10T09:17:00.716Z,49.46
2019-05-10T09:19:27.697Z,52.00
2019-05-10T09:21:55.080Z,53.41
2019-05-10T09:24:23.166Z,53.50
2019-05-10T09:26:56.798Z,53.09
2019-05-10T09:29:22.371Z,52.75
2019-05-10T09:31:53.478Z,53.36
2019-05-10T09:34:23.855Z,53.90
2019-05-10T09:36:52.937Z,53.17
2019-05-10T09:39:24.913Z,52.67
2019-05-10T09:41:52.788Z,48.13
2019-05-10T09:44:22.898Z,47.60
2019-05-10T09:46:52.468Z,46.27
2019-05-10T09:49:23.253Z,45.43
2019-05-10T09:51:52.796Z,45.04
2019-05-10T09:54:23.373Z,44.64
2019-05-10T09:56:52.928Z,44.67
2019-05-10T09:59:21.546Z,43.64
2019-05-10T10:01:50.173Z,42.60
2019-05-10T10:04:20.396Z,41.59
2019-05-10T10:06:52.689Z,40.54
2019-05-10T10:09:24.734Z,39.79
2019-05-10T10:11:58.088Z,38.11
2019-05-10T10:14:20.319Z,40.34
2019-05-10T10:16:58.412Z,41.23
2019-05-10T10:19:21.470Z,41.52
2019-05-10T10:21:49.766Z,45.10
2019-05-10T10:24:20.275Z,44.32
2019-05-10T10:26:54.009Z,44.58
2019-05-10T10:29:19.286Z,45.72
2019-05-10T10:31:54.787Z,43.55
2019-05-10T10:34:18.259Z,45.31
2019-05-10T10:36:47.578Z,44.43
2019-05-10T10:39:17.074Z,42.33
2019-05-10T10:41:48.074Z,38.51
2019-05-10T10:44:18.140Z,36.34
2019-05-10T10:46:47.992Z,38.97
2019-05-10T10:49:17.776Z,39.09
2019-05-10T10:51:47.233Z,38.64
2019-05-10T10:54:17.605Z,37.89
2019-05-10T10:56:48.322Z,39.33
2019-05-10T10:59:18.293Z,40.36
2019-05-10T11:01:56.624Z,40.90
2019-05-10T11:04:18.372Z,42.17
2019-05-10T11:06:47.017Z,42.69
2019-05-10T11:09:20.630Z,42.67
2019-05-10T11:11:51.518Z,42.34
2019-05-10T11:14:20.650Z,41.38
2019-05-10T11:16:52.927Z,39.90
2019-05-10T11:19:20.462Z,41.10
2019-05-10T11:21:51.203Z,42.42
2019-05-10T11:24:22.735Z,41.33
2019-05-10T11:26:51.656Z,38.88
2019-05-10T11:29:26.294Z,38.78
2019-05-10T11:32:11.352Z,37.22
2019-05-10T11:34:21.704Z,39.61
2019-05-10T11:36:51.152Z,37.72
2019-05-10T11:39:26.108Z,37.87
2019-05-10T11:41:52.945Z,39.37
2019-05-10T11:44:22.086Z,40.50
2019-05-10T11:46:51.546Z,44.39
2019-05-10T11:49:20.524Z,46.04
2019-05-10T11:51:54.846Z,49.10
2019-05-10T11:54:21.567Z,47.87
2019-05-10T11:56:52.164Z,48.07
2019-05-10T11:59:21.848Z,48.31
2019-05-10T12:01:57.973Z,47.65
2019-05-10T12:06:51.569Z,47.66
2019-05-10T12:09:24.194Z,47.84
2019-05-10T12:11:54.534Z,43.77
2019-05-10T12:14:21.914Z,44.98
2019-05-10T12:16:54.639Z,43.99
2019-05-10T12:19:21.539Z,42.40
2019-05-10T12:21:55.438Z,41.19
2019-05-10T12:24:38.710Z,42.56
2019-05-10T12:26:27.298Z,45.96
2019-05-10T12:27:18.519Z,40.94
2019-05-10T12:29:22.377Z,41.94
2019-05-10T12:31:55.103Z,43.54
2019-05-10T12:34:21.345Z,43.49
2019-05-10T12:36:51.972Z,43.13
2019-05-10T12:39:21.490Z,44.66
2019-05-10T12:41:52.998Z,41.89
2019-05-10T12:44:21.118Z,41.55
2019-05-10T12:46:50.976Z,43.72
2019-05-10T12:49:21.438Z,42.91
2019-05-10T12:51:51.330Z,42.16
2019-05-10T12:54:23.795Z,45.54
2019-05-10T12:56:51.226Z,43.28
2019-05-10T12:59:20.137Z,44.05
2019-05-10T13:01:48.789Z,46.16
2019-05-10T13:04:17.440Z,45.37
2019-05-10T13:06:46.059Z,46.07
2019-05-10T13:09:15.790Z,46.19
2019-05-10T13:11:45.155Z,46.68
2019-05-10T13:14:13.894Z,47.32
2019-05-10T13:16:42.701Z,48.79
2019-05-10T13:19:14.059Z,50.01
2019-05-10T13:21:41.915Z,48.38
2019-05-10T13:24:10.642Z,47.97
2019-05-10T13:26:39.565Z,47.44
2019-05-10T13:29:10.534Z,45.03
2019-05-10T13:31:42.893Z,47.86
2019-05-10T13:34:10.038Z,47.05
2019-05-10T13:36:39.221Z,48.87
2019-05-10T13:39:08.043Z,49.63
2019-05-10T13:41:36.678Z,46.34
2019-05-10T13:44:06.440Z,47.41
2019-05-10T13:46:35.168Z,46.66
2019-05-10T13:49:03.913Z,47.45
2019-05-10T13:51:32.539Z,46.00
2019-05-10T13:54:04.813Z,47.12
2019-05-10T13:56:31.475Z,47.94
2019-05-10T13:59:13.758Z,47.03
2019-05-10T14:01:30.421Z,48.57
2019-05-10T14:04:01.052Z,46.91
2019-05-10T14:06:29.434Z,48.34
2019-05-10T14:08:58.283Z,48.41
2019-05-10T14:11:26.954Z,49.12
2019-05-10T14:13:55.803Z,48.62
2019-05-10T14:16:24.529Z,47.85
2019-05-10T14:18:53.131Z,44.68
2019-05-10T14:21:21.792Z,46.85
2019-05-10T14:23:50.441Z,44.21
2019-05-10T14:26:19.342Z,39.88
2019-05-10T14:28:53.249Z,42.82
2019-05-10T14:31:18.476Z,44.40
2019-05-10T14:34:04.495Z,43.18
2019-05-10T14:36:17.919Z,42.94
2019-05-10T14:38:47.242Z,42.42
2019-05-10T14:41:16.930Z,42.32
2019-05-10T14:43:45.513Z,42.98
2019-05-10T14:46:14.223Z,41.37
2019-05-10T14:48:42.812Z,42.07
2019-05-10T14:51:13.838Z,40.13
2019-05-10T14:53:41.786Z,41.70
2019-05-10T14:56:14.076Z,42.12
2019-05-10T14:58:41.224Z,42.68
2019-05-10T15:01:09.832Z,42.20
2019-05-10T15:03:45.355Z,41.87
2019-05-10T15:06:10.211Z,41.73
2019-05-10T15:08:39.822Z,41.01
2019-05-10T15:11:08.425Z,40.28
2019-05-10T15:13:37.118Z,40.16
2019-05-10T15:16:09.618Z,40.22
2019-05-10T15:18:36.699Z,38.78
2019-05-10T15:21:05.333Z,40.26
2019-05-10T15:23:33.967Z,38.17
2019-05-10T15:26:10.118Z,38.29
2019-05-10T15:28:34.620Z,40.57
2019-05-10T15:31:03.760Z,39.97
2019-05-10T15:33:32.393Z,38.82
2019-05-10T15:36:01.060Z,38.66
2019-05-10T15:38:29.690Z,37.48
2019-05-10T15:40:58.580Z,36.94
2019-05-10T15:43:27.189Z,37.55
2019-05-10T15:45:55.924Z,37.81
2019-05-10T15:48:24.530Z,38.27
2019-05-10T15:50:53.334Z,39.35
2019-05-10T15:53:25.590Z,35.98
2019-05-10T15:55:52.584Z,38.51
2019-05-10T15:58:21.328Z,37.77
2019-05-10T16:00:49.988Z,36.90
2019-05-10T16:03:18.878Z,36.84
2019-05-10T16:05:59.955Z,37.14
2019-05-10T16:08:17.932Z,37.71
2019-05-10T16:10:47.257Z,38.13
2019-05-10T16:13:23.285Z,37.48
2019-05-10T16:15:46.504Z,39.58
2019-05-10T16:18:16.809Z,38.40
2019-05-10T16:20:45.505Z,38.52
2019-05-10T16:23:14.181Z,38.51
2019-05-10T16:25:48.193Z,37.81
2019-05-10T16:28:15.558Z,37.86
2019-05-10T16:30:46.936Z,38.41
2019-05-10T16:33:15.751Z,39.10
2019-05-10T16:35:49.829Z,38.24
2019-05-10T16:38:15.132Z,37.48
2019-05-10T16:40:57.306Z,37.77
2019-05-10T16:43:22.118Z,38.04
2019-05-10T16:45:46.138Z,36.56
2019-05-10T16:48:15.243Z,38.70
2019-05-10T16:50:43.864Z,36.73
2019-05-10T16:53:12.511Z,35.18
2019-05-10T16:55:43.000Z,35.63
2019-05-10T16:58:15.154Z,35.83
2019-05-10T17:00:46.244Z,37.68
2019-05-10T17:03:17.655Z,38.47
2019-05-10T17:05:53.091Z,36.57
2019-05-10T17:08:16.108Z,36.89
2019-05-10T17:10:44.729Z,36.98
2019-05-10T17:13:13.750Z,36.90
2019-05-10T17:15:42.578Z,38.54
2019-05-10T17:18:17.785Z,38.92
2019-05-10T17:20:45.454Z,37.69
2019-05-10T17:23:12.446Z,39.50
2019-05-10T17:25:42.347Z,38.26
2019-05-10T17:28:11.236Z,38.35
2019-05-10T17:30:39.855Z,40.35
2019-05-10T17:33:10.843Z,39.56
2019-05-10T17:35:42.019Z,40.24
2019-05-10T17:38:14.385Z,38.31
2019-05-10T17:40:42.350Z,37.74
2019-05-10T17:43:14.329Z,36.84
2019-05-10T17:45:42.474Z,37.12
2019-05-10T17:48:11.148Z,35.86
2019-05-10T17:50:39.783Z,36.23
2019-05-10T17:53:08.386Z,36.00
2019-05-10T17:55:37.001Z,36.10
2019-05-10T17:58:05.617Z,37.15
2019-05-10T18:00:34.257Z,36.87
2019-05-10T18:03:02.904Z,36.84
2019-05-10T18:05:31.541Z,38.69
2019-05-10T18:08:00.166Z,40.14
2019-05-10T18:10:28.775Z,38.52
2019-05-10T18:13:03.189Z,39.42
2019-05-10T18:15:32.753Z,37.46
2019-05-10T18:18:02.553Z,36.93
2019-05-10T18:20:28.545Z,36.84
2019-05-10T18:22:57.247Z,36.29
2019-05-10T18:25:25.845Z,36.86
2019-05-10T18:27:54.813Z,39.84
2019-05-10T18:30:23.781Z,40.87
2019-05-10T18:32:52.407Z,41.28
2019-05-10T18:35:21.024Z,40.17
2019-05-10T18:37:53.547Z,42.97
2019-05-10T18:40:25.286Z,42.28
2019-05-10T18:42:50.926Z,43.22
2019-05-10T18:45:23.427Z,42.21
2019-05-10T18:47:50.059Z,41.28
2019-05-10T18:50:18.799Z,41.63
2019-05-10T18:52:47.411Z,44.41
2019-05-10T18:55:16.101Z,44.58
2019-05-10T18:57:45.456Z,43.61
2019-05-10T19:00:17.753Z,43.10
2019-05-10T19:02:49.685Z,42.71
2019-05-10T19:05:16.477Z,44.28
2019-05-10T19:07:45.238Z,44.48
2019-05-10T19:10:14.008Z,45.12
2019-05-10T19:12:43.008Z,45.51
2019-05-10T19:15:15.270Z,45.88
2019-05-10T19:17:45.864Z,43.73
2019-05-10T19:20:16.346Z,44.66
2019-05-10T19:22:44.313Z,44.51
2019-05-10T19:25:14.389Z,45.18
2019-05-10T19:27:44.170Z,46.20
2019-05-10T19:30:13.603Z,46.79
2019-05-10T19:32:42.477Z,45.09
2019-05-10T19:35:11.261Z,45.15
2019-05-10T19:37:39.876Z,46.45
2019-05-10T19:40:09.760Z,45.51
2019-05-10T19:42:43.508Z,44.58
2019-05-10T19:45:12.818Z,45.01
2019-05-10T19:47:39.695Z,45.04
2019-05-10T19:50:08.476Z,45.23
2019-05-10T19:52:37.133Z,46.91
2019-05-10T19:55:05.750Z,50.32
2019-05-10T19:57:34.700Z,51.34
2019-05-10T20:00:03.416Z,47.99
2019-05-10T20:02:32.031Z,47.99
2019-05-10T20:05:00.710Z,49.86
2019-05-10T20:07:44.495Z,48.51
2019-05-10T20:09:59.689Z,47.64
2019-05-10T20:12:28.362Z,46.51
2019-05-10T20:14:57.260Z,46.91
2019-05-10T20:17:26.294Z,49.60
2019-05-10T20:19:55.026Z,51.09
2019-05-10T20:22:23.899Z,53.67
2019-05-10T20:24:52.547Z,53.27
2019-05-10T20:27:21.392Z,53.31
2019-05-10T20:29:50.048Z,53.29
2019-05-10T20:32:18.809Z,53.29
2019-05-10T20:34:47.488Z,53.75
2019-05-10T20:37:16.125Z,53.45
2019-05-10T20:39:44.728Z,53.11
2019-05-10T20:42:13.403Z,52.35
2019-05-10T20:44:42.092Z,51.51
2019-05-10T20:47:10.813Z,47.11
2019-05-10T20:49:39.498Z,47.11
2019-05-10T20:52:08.119Z,44.99
2019-05-10T20:54:36.867Z,44.99
2019-05-10T20:57:05.722Z,48.01
2019-05-10T20:59:34.353Z,48.01
2019-05-10T21:02:03.144Z,47.06
2019-05-10T21:04:32.009Z,47.06
2019-05-10T21:07:00.677Z,47.78
2019-05-10T21:09:29.356Z,47.01
2019-05-10T21:11:57.984Z,48.89
2019-05-10T21:14:26.662Z,49.31
2019-05-10T21:16:55.626Z,49.31
2019-05-10T21:19:24.269Z,49.04
2019-05-10T21:21:53.152Z,48.99
2019-05-10T21:24:21.820Z,47.98
2019-05-10T21:26:50.511Z,48.53
2019-05-10T21:29:19.519Z,48.53
2019-05-10T21:31:48.187Z,49.47
2019-05-10T21:34:17.064Z,48.77
2019-05-10T21:36:45.977Z,48.77
2019-05-10T21:39:14.637Z,47.39
2019-05-10T21:41:43.245Z,47.39
2019-05-10T21:44:11.920Z,47.75
2019-05-10T21:46:40.598Z,47.75
2019-05-10T21:49:09.456Z,48.65
2019-05-10T21:51:38.588Z,48.07
2019-05-10T21:54:07.426Z,48.07
2019-05-10T21:56:37.268Z,48.07
2019-05-10T21:59:06.281Z,48.21
2019-05-10T22:01:35.208Z,48.72
2019-05-10T22:04:03.880Z,48.72
2019-05-10T22:06:32.497Z,47.42
2019-05-10T22:09:01.852Z,49.18
2019-05-10T22:11:32.786Z,50.01
2019-05-10T22:14:01.586Z,48.98
2019-05-10T22:16:30.468Z,50.94
2019-05-10T22:19:00.889Z,49.52
2019-05-10T22:21:29.906Z,48.95
2019-05-10T22:23:58.575Z,50.04
2019-05-10T22:26:27.185Z,48.11
2019-05-10T22:28:57.043Z,48.11
2019-05-10T22:31:25.645Z,49.89
2019-05-10T22:33:54.513Z,49.49
2019-05-10T22:36:23.143Z,49.49
2019-05-10T22:39:05.626Z,49.11
2019-05-10T22:41:22.123Z,49.11
2019-05-10T22:43:50.717Z,48.71
2019-05-10T22:46:19.395Z,48.71
2019-05-10T22:48:48.087Z,48.75
2019-05-10T22:51:16.717Z,50.11
2019-05-10T22:53:53.247Z,50.97
2019-05-10T22:56:15.916Z,50.97
2019-05-10T22:58:44.555Z,50.36
2019-05-10T23:01:13.311Z,48.99
2019-05-10T23:03:42.218Z,48.99
2019-05-10T23:06:12.401Z,50.01
2019-05-10T23:08:41.007Z,49.41
2019-05-10T23:11:09.726Z,49.41
2019-05-10T23:13:38.609Z,48.16
2019-05-10T23:16:07.223Z,48.52
2019-05-10T23:18:35.817Z,49.37
2019-05-10T23:21:04.416Z,49.37
2019-05-10T23:23:33.074Z,50.93
2019-05-10T23:26:01.922Z,51.15
2019-05-10T23:28:30.929Z,51.15
2019-05-10T23:30:59.524Z,50.38
2019-05-10T23:33:28.114Z,50.89
2019-05-10T23:35:56.955Z,47.45
2019-05-10T23:38:25.813Z,47.65
2019-05-10T23:40:54.669Z,47.65
2019-05-10T23:43:23.343Z,50.29
2019-05-10T23:45:51.937Z,47.34
2019-05-10T23:48:21.038Z,47.34
2019-05-10T23:50:49.913Z,50.68
2019-05-10T23:53:18.567Z,51.32
2019-05-10T23:55:47.162Z,49.42
2019-05-10T23:58:15.752Z,52.03
